Time;durP1;ratioP1;P1;durP2;ratioP2;P2;SDS_P1;SDS_P2;PMS_P1;PMS_P2;Temp;Humidity;BMP_temperature;BMP_pressure;BME280_temperature;BME280_humidity;BME280_pressure;Samples;Min_cycle;Max_cycle;Signal;HPM_P1;HPM_P2
2022/01/07 00:00:39;;;;;;;11.27;6.77;;;;;;;;;;5093588;28;20742;-71
2022/01/07 00:03:05;;;;;;;9.63;7.13;;;;;;;;;;5093994;28;20413;-73
2022/01/07 00:05:32;;;;;;;11.00;6.57;;;;;;;;;;5092656;28;20450;-71
2022/01/07 00:07:58;;;;;;;8.85;6.15;;;;;;;;;;5094073;28;20397;-72
2022/01/07 00:10:24;;;;;;;11.07;7.03;;;;;;;;;;5094014;28;20523;-71
2022/01/07 00:12:51;;;;;;;10.77;6.87;;;;;;;;;;5093864;28;20409;-71
2022/01/07 00:15:17;;;;;;;12.40;6.45;;;;;;;;;;5093667;28;20493;-71
2022/01/07 00:17:44;;;;;;;8.67;6.73;;;;;;;;;;5092624;28;20320;-71
2022/01/07 00:20:11;;;;;;;11.43;6.57;;;;;;;;;;5093771;28;20406;-71
2022/01/07 00:22:38;;;;;;;10.80;6.68;;;;;;;;;;5093486;28;20210;-71
2022/01/07 00:25:04;;;;;;;12.00;6.95;;;;;;;;;;5093572;28;20179;-71
2022/01/07 00:27:30;;;;;;;10.53;6.70;;;;;;;;;;5092059;28;20183;-71
2022/01/07 00:29:56;;;;;;;9.90;7.13;;;;;;;;;;5093613;28;20446;-71
2022/01/07 00:32:22;;;;;;;11.93;6.93;;;;;;;;;;5093450;28;20410;-73
2022/01/07 00:34:48;;;;;;;10.15;7.40;;;;;;;;;;5093507;28;20475;-71
2022/01/07 00:37:14;;;;;;;11.43;5.97;;;;;;;;;;5093514;28;20676;-71
2022/01/07 00:39:40;;;;;;;11.05;6.15;;;;;;;;;;5093368;28;20433;-72
2022/01/07 00:42:07;;;;;;;12.23;6.87;;;;;;;;;;5092012;28;20294;-71
2022/01/07 00:44:33;;;;;;;11.35;6.88;;;;;;;;;;5093346;28;20398;-70
2022/01/07 00:46:59;;;;;;;8.80;6.00;;;;;;;;;;5093428;28;20217;-71
2022/01/07 00:49:25;;;;;;;16.53;7.00;;;;;;;;;;5093287;28;20877;-70
2022/01/07 00:51:51;;;;;;;11.15;6.00;;;;;;;;;;5093283;28;20424;-70
2022/01/07 00:54:17;;;;;;;7.75;5.25;;;;;;;;;;5093216;28;20177;-71
2022/01/07 00:56:43;;;;;;;12.95;6.25;;;;;;;;;;5093274;28;20532;-71
2022/01/07 00:59:09;;;;;;;10.50;6.28;;;;;;;;;;5091777;28;20333;-71
2022/01/07 01:01:36;;;;;;;11.60;6.90;;;;;;;;;;5093051;28;20277;-71
2022/01/07 01:04:02;;;;;;;8.00;6.18;;;;;;;;;;5093237;28;20491;-70
2022/01/07 01:06:28;;;;;;;8.70;6.53;;;;;;;;;;5093178;28;20224;-71
2022/01/07 01:08:55;;;;;;;8.80;6.07;;;;;;;;;;5093150;28;20554;-71
2022/01/07 01:11:21;;;;;;;9.90;6.22;;;;;;;;;;5093126;28;20418;-71
2022/01/07 01:13:47;;;;;;;9.33;5.67;;;;;;;;;;5093109;28;20168;-71
2022/01/07 01:16:13;;;;;;;12.93;5.53;;;;;;;;;;5093118;28;20424;-72
2022/01/07 01:18:39;;;;;;;8.80;5.83;;;;;;;;;;5093136;28;20428;-71
2022/01/07 01:21:05;;;;;;;10.63;6.20;;;;;;;;;;5092760;28;20465;-70
2022/01/07 01:23:32;;;;;;;12.20;6.10;;;;;;;;;;5091861;28;20176;-72
2022/01/07 01:25:58;;;;;;;11.52;6.43;;;;;;;;;;5092995;28;20752;-70
2022/01/07 01:28:24;;;;;;;11.33;6.10;;;;;;;;;;5093076;28;20731;-70
2022/01/07 01:30:50;;;;;;;8.97;5.93;;;;;;;;;;5092887;28;20414;-70
2022/01/07 01:33:18;;;;;;;13.07;6.60;;;;;;;;;;5092994;28;20414;-71
2022/01/07 01:35:44;;;;;;;11.40;5.87;;;;;;;;;;5091664;28;20417;-70
2022/01/07 01:38:10;;;;;;;8.40;6.90;;;;;;;;;;5092998;28;20517;-71
2022/01/07 01:40:36;;;;;;;8.20;6.13;;;;;;;;;;5094579;28;20522;-71
2022/01/07 01:43:02;;;;;;;8.47;6.30;;;;;;;;;;5096536;28;21027;-71
2022/01/07 01:45:29;;;;;;;12.13;6.82;;;;;;;;;;5095395;28;20448;-71
2022/01/07 01:47:55;;;;;;;13.55;7.10;;;;;;;;;;5096597;28;20209;-70
2022/01/07 01:50:21;;;;;;;11.85;6.70;;;;;;;;;;5096573;28;20167;-72
2022/01/07 01:52:53;;;;;;;8.60;7.20;;;;;;;;;;5096508;28;20170;-71
2022/01/07 01:55:19;;;;;;;12.65;6.85;;;;;;;;;;5096587;28;20401;-70
2022/01/07 01:57:46;;;;;;;11.97;6.40;;;;;;;;;;5095141;28;20175;-71
2022/01/07 02:00:12;;;;;;;12.77;7.65;;;;;;;;;;5096177;28;20460;-70
2022/01/07 02:02:38;;;;;;;13.90;6.40;;;;;;;;;;5096201;28;20668;-71
2022/01/07 02:05:05;;;;;;;14.65;6.63;;;;;;;;;;5096341;28;20629;-71
2022/01/07 02:07:35;;;;;;;14.80;7.18;;;;;;;;;;5096225;28;20639;-72
2022/01/07 02:10:09;;;;;;;12.20;7.10;;;;;;;;;;5096363;28;20169;-71
2022/01/07 02:12:36;;;;;;;9.82;7.00;;;;;;;;;;5096152;28;20895;-71
2022/01/07 02:15:02;;;;;;;10.60;6.28;;;;;;;;;;5096072;28;20216;-70
2022/01/07 02:17:28;;;;;;;10.77;6.43;;;;;;;;;;5094850;28;20208;-71
2022/01/07 02:19:55;;;;;;;12.20;6.22;;;;;;;;;;5095932;28;20392;-72
2022/01/07 02:22:21;;;;;;;14.68;6.95;;;;;;;;;;5095757;28;20256;-71
2022/01/07 02:24:48;;;;;;;9.50;6.00;;;;;;;;;;5095954;28;20168;-72
2022/01/07 02:27:15;;;;;;;13.00;6.40;;;;;;;;;;5094573;28;20176;-71
2022/01/07 02:29:43;;;;;;;8.93;6.45;;;;;;;;;;5095751;28;20953;-71
2022/01/07 02:32:09;;;;;;;10.13;6.72;;;;;;;;;;5095729;28;20185;-74
2022/01/07 02:34:35;;;;;;;12.23;6.70;;;;;;;;;;5095761;28;20527;-75
2022/01/07 02:37:01;;;;;;;9.73;6.60;;;;;;;;;;5094382;28;20175;-72
2022/01/07 02:39:27;;;;;;;8.65;6.47;;;;;;;;;;5095609;28;20410;-71
2022/01/07 02:41:53;;;;;;;10.07;6.40;;;;;;;;;;5095523;28;20234;-72
2022/01/07 02:44:19;;;;;;;11.73;6.35;;;;;;;;;;5095610;28;20257;-71
2022/01/07 02:46:45;;;;;;;10.50;6.40;;;;;;;;;;5094233;28;20269;-72
2022/01/07 02:49:15;;;;;;;11.88;7.57;;;;;;;;;;5095454;28;20398;-73
2022/01/07 02:51:41;;;;;;;14.57;7.05;;;;;;;;;;5095090;28;20167;-71
2022/01/07 02:54:08;;;;;;;9.45;6.07;;;;;;;;;;5094037;28;20585;-70
2022/01/07 02:56:34;;;;;;;11.95;6.97;;;;;;;;;;5095207;28;20179;-71
2022/01/07 02:59:01;;;;;;;12.93;6.88;;;;;;;;;;5094973;28;20287;-71
2022/01/07 03:01:27;;;;;;;13.15;7.15;;;;;;;;;;5093943;28;20280;-73
2022/01/07 03:03:53;;;;;;;14.30;6.45;;;;;;;;;;5093904;28;20632;-73
2022/01/07 03:06:21;;;;;;;11.30;7.13;;;;;;;;;;5093962;28;20174;-73
2022/01/07 03:08:47;;;;;;;8.52;6.20;;;;;;;;;;5095016;28;20423;-71
2022/01/07 03:11:13;;;;;;;13.35;6.40;;;;;;;;;;5093861;28;20183;-74
2022/01/07 03:13:39;;;;;;;11.52;6.68;;;;;;;;;;5094906;28;20159;-74
2022/01/07 03:16:05;;;;;;;12.45;7.30;;;;;;;;;;5095020;28;20292;-70
2022/01/07 03:18:31;;;;;;;9.98;6.57;;;;;;;;;;5093207;28;20217;-75
2022/01/07 03:20:59;;;;;;;10.55;7.05;;;;;;;;;;5094725;28;20174;-75
2022/01/07 03:23:26;;;;;;;10.40;7.07;;;;;;;;;;5094696;28;20201;-72
2022/01/07 03:25:52;;;;;;;13.07;6.40;;;;;;;;;;5093499;28;20691;-71
2022/01/07 03:28:18;;;;;;;9.95;6.78;;;;;;;;;;5094727;28;20167;-70
2022/01/07 03:30:44;;;;;;;12.27;6.18;;;;;;;;;;5094693;28;20208;-71
2022/01/07 03:33:11;;;;;;;12.13;6.82;;;;;;;;;;5094529;28;20209;-71
2022/01/07 03:35:37;;;;;;;12.38;6.40;;;;;;;;;;5094621;28;20170;-74
2022/01/07 03:38:03;;;;;;;9.77;5.80;;;;;;;;;;5094538;28;20199;-75
2022/01/07 03:40:29;;;;;;;12.68;6.32;;;;;;;;;;5093212;28;20232;-74
2022/01/07 03:42:56;;;;;;;8.73;5.45;;;;;;;;;;5094255;28;20673;-73
2022/01/07 03:45:22;;;;;;;14.48;6.55;;;;;;;;;;5094424;28;20177;-74
2022/01/07 03:47:49;;;;;;;7.78;5.70;;;;;;;;;;5094307;28;20170;-71
2022/01/07 03:50:16;;;;;;;8.65;5.43;;;;;;;;;;5094368;28;20178;-71
2022/01/07 03:52:42;;;;;;;9.38;5.40;;;;;;;;;;5092949;28;20181;-72
2022/01/07 03:55:11;;;;;;;9.43;5.43;;;;;;;;;;5092975;28;20737;-72
2022/01/07 03:57:37;;;;;;;10.15;5.88;;;;;;;;;;5094229;28;20178;-73
2022/01/07 04:00:05;;;;;;;10.77;5.90;;;;;;;;;;5093676;28;20229;-71
2022/01/07 04:02:31;;;;;;;13.40;6.05;;;;;;;;;;5093305;28;20207;-73
2022/01/07 04:04:57;;;;;;;10.43;4.80;;;;;;;;;;5093920;28;20178;-73
2022/01/07 04:07:23;;;;;;;10.38;4.68;;;;;;;;;;5092813;28;20404;-74
2022/01/07 04:09:49;;;;;;;6.93;4.97;;;;;;;;;;5092642;28;20648;-73
2022/01/07 04:12:15;;;;;;;8.10;5.30;;;;;;;;;;5093942;28;20408;-72
2022/01/07 04:14:41;;;;;;;9.53;5.60;;;;;;;;;;5092462;28;20411;-71
2022/01/07 04:17:07;;;;;;;13.10;5.60;;;;;;;;;;5093785;28;20433;-73
2022/01/07 04:19:33;;;;;;;8.63;5.82;;;;;;;;;;5093706;28;20171;-72
2022/01/07 04:22:00;;;;;;;9.57;5.05;;;;;;;;;;5093509;28;20212;-70
2022/01/07 04:24:26;;;;;;;9.45;5.75;;;;;;;;;;5092291;28;20587;-70
2022/01/07 04:26:52;;;;;;;9.25;4.30;;;;;;;;;;5093701;28;20170;-72
2022/01/07 04:29:18;;;;;;;6.63;5.20;;;;;;;;;;5093399;28;20198;-74
2022/01/07 04:31:44;;;;;;;7.32;5.00;;;;;;;;;;5092292;28;20198;-73
2022/01/07 04:34:10;;;;;;;8.70;5.30;;;;;;;;;;5093477;28;20196;-75
2022/01/07 04:36:37;;;;;;;9.70;5.07;;;;;;;;;;5093577;28;20491;-76
2022/01/07 04:39:03;;;;;;;9.15;5.40;;;;;;;;;;5093407;28;20159;-73
2022/01/07 04:41:29;;;;;;;7.70;4.97;;;;;;;;;;5093303;28;20212;-76
2022/01/07 04:43:55;;;;;;;7.32;5.50;;;;;;;;;;5092055;28;20218;-75
2022/01/07 04:46:21;;;;;;;11.87;5.50;;;;;;;;;;5092060;28;20207;-75
2022/01/07 04:48:47;;;;;;;11.32;5.10;;;;;;;;;;5093262;28;20833;-76
2022/01/07 04:51:13;;;;;;;8.83;5.83;;;;;;;;;;5093334;28;20375;-76
2022/01/07 04:53:39;;;;;;;9.90;5.43;;;;;;;;;;5092084;28;20418;-76
2022/01/07 04:56:05;;;;;;;8.43;5.27;;;;;;;;;;5093348;28;20811;-76
2022/01/07 04:58:31;;;;;;;8.07;4.83;;;;;;;;;;5092796;28;20427;-71
2022/01/07 05:00:57;;;;;;;14.17;5.40;;;;;;;;;;5093321;28;20402;-74
2022/01/07 05:03:23;;;;;;;8.90;4.85;;;;;;;;;;5091987;28;20419;-74
2022/01/07 05:06:01;;;;;;;8.13;5.10;;;;;;;;;;5091938;28;20625;-74
2022/01/07 05:08:27;;;;;;;9.50;5.22;;;;;;;;;;5093353;28;20507;-69
2022/01/07 05:10:53;;;;;;;16.45;5.65;;;;;;;;;;5092027;28;20214;-68
2022/01/07 05:13:19;;;;;;;9.93;5.93;;;;;;;;;;5094122;28;20506;-72
2022/01/07 05:15:45;;;;;;;8.95;5.45;;;;;;;;;;5097333;28;20425;-72
2022/01/07 05:18:11;;;;;;;8.60;5.50;;;;;;;;;;5096090;28;20174;-71
2022/01/07 05:20:37;;;;;;;10.07;6.35;;;;;;;;;;5097119;28;20174;-73
2022/01/07 05:23:03;;;;;;;8.02;4.82;;;;;;;;;;5096900;28;20691;-71
2022/01/07 05:25:34;;;;;;;7.83;5.40;;;;;;;;;;5095819;28;20176;-72
2022/01/07 05:28:00;;;;;;;10.02;5.68;;;;;;;;;;5095763;28;20417;-70
2022/01/07 05:30:26;;;;;;;8.75;5.40;;;;;;;;;;5096940;28;20198;-71
2022/01/07 05:32:52;;;;;;;7.37;4.93;;;;;;;;;;5096826;28;20166;-71
2022/01/07 05:35:18;;;;;;;10.87;6.10;;;;;;;;;;5096899;28;20398;-70
2022/01/07 05:37:44;;;;;;;9.77;5.63;;;;;;;;;;5096883;28;20412;-70
2022/01/07 05:40:10;;;;;;;10.93;5.83;;;;;;;;;;5096665;28;20888;-70
2022/01/07 05:42:36;;;;;;;9.80;5.75;;;;;;;;;;5095345;28;20831;-70
2022/01/07 05:45:02;;;;;;;16.58;6.57;;;;;;;;;;5095573;28;20180;-71
2022/01/07 05:47:29;;;;;;;8.85;5.35;;;;;;;;;;5096678;28;20173;-70
2022/01/07 05:49:55;;;;;;;8.43;5.70;;;;;;;;;;5096672;28;20258;-71
2022/01/07 05:52:21;;;;;;;8.50;5.57;;;;;;;;;;5095260;28;20264;-70
2022/01/07 05:54:48;;;;;;;8.48;5.25;;;;;;;;;;5096434;28;20400;-74
2022/01/07 05:57:14;;;;;;;10.70;6.70;;;;;;;;;;5096570;28;20198;-73
2022/01/07 05:59:40;;;;;;;15.67;5.93;;;;;;;;;;5094773;28;20502;-71
2022/01/07 06:02:06;;;;;;;9.03;4.70;;;;;;;;;;5096264;28;20473;-73
2022/01/07 06:04:32;;;;;;;12.53;6.07;;;;;;;;;;5095105;28;20408;-71
2022/01/07 06:06:58;;;;;;;9.93;5.40;;;;;;;;;;5095055;28;20417;-72
2022/01/07 06:09:24;;;;;;;12.03;6.50;;;;;;;;;;5096201;28;20477;-70
2022/01/07 06:11:50;;;;;;;8.30;5.80;;;;;;;;;;5094835;28;20471;-73
2022/01/07 06:14:16;;;;;;;10.37;6.03;;;;;;;;;;5095959;28;20409;-69
2022/01/07 06:16:42;;;;;;;9.18;5.88;;;;;;;;;;5096143;28;20404;-71
2022/01/07 06:19:08;;;;;;;12.80;5.23;;;;;;;;;;5095948;28;20645;-71
2022/01/07 06:21:34;;;;;;;10.00;6.10;;;;;;;;;;5095938;28;20452;-72
2022/01/07 06:24:00;;;;;;;11.15;6.15;;;;;;;;;;5096000;28;20415;-71
2022/01/07 06:26:26;;;;;;;11.97;6.20;;;;;;;;;;5094025;28;20207;-71
2022/01/07 06:28:52;;;;;;;10.35;6.68;;;;;;;;;;5095752;28;20428;-70
2022/01/07 06:31:18;;;;;;;12.60;6.40;;;;;;;;;;5095734;28;20181;-71
2022/01/07 06:33:44;;;;;;;9.13;5.93;;;;;;;;;;5095772;28;20173;-71
2022/01/07 06:36:10;;;;;;;8.37;5.53;;;;;;;;;;5095699;28;20178;-72
2022/01/07 06:38:37;;;;;;;10.37;5.73;;;;;;;;;;5095552;28;20417;-71
2022/01/07 06:41:03;;;;;;;12.30;6.97;;;;;;;;;;5095514;28;20422;-70
2022/01/07 06:43:29;;;;;;;12.23;6.93;;;;;;;;;;5095565;28;20175;-71
2022/01/07 06:45:55;;;;;;;13.80;6.60;;;;;;;;;;5095595;28;20768;-73
2022/01/07 06:48:21;;;;;;;12.20;6.53;;;;;;;;;;5095434;28;20776;-70
2022/01/07 06:50:47;;;;;;;11.37;6.37;;;;;;;;;;5095571;28;20410;-73
2022/01/07 06:53:13;;;;;;;9.98;6.28;;;;;;;;;;5095339;28;20406;-74
2022/01/07 06:55:39;;;;;;;11.33;6.90;;;;;;;;;;5095338;28;20175;-74
2022/01/07 06:58:05;;;;;;;10.30;6.07;;;;;;;;;;5095322;28;20401;-75
2022/01/07 07:00:31;;;;;;;11.50;6.10;;;;;;;;;;5093596;28;20502;-75
2022/01/07 07:02:57;;;;;;;13.20;6.75;;;;;;;;;;5095079;28;20464;-73
2022/01/07 07:05:24;;;;;;;10.03;6.10;;;;;;;;;;5095139;28;20630;-71
2022/01/07 07:07:51;;;;;;;11.80;6.80;;;;;;;;;;5095134;28;20412;-75
2022/01/07 07:10:17;;;;;;;11.30;6.93;;;;;;;;;;5093865;28;20174;-75
2022/01/07 07:12:43;;;;;;;11.10;6.50;;;;;;;;;;5094962;28;20497;-75
2022/01/07 07:15:09;;;;;;;10.27;6.35;;;;;;;;;;5094958;28;20841;-73
2022/01/07 07:17:35;;;;;;;13.93;6.90;;;;;;;;;;5094772;28;20590;-75
2022/01/07 07:20:03;;;;;;;11.57;6.20;;;;;;;;;;5093601;28;20409;-74
2022/01/07 07:22:29;;;;;;;12.18;6.40;;;;;;;;;;5094847;28;20464;-72
2022/01/07 07:24:55;;;;;;;14.70;6.90;;;;;;;;;;5094785;28;20168;-75
2022/01/07 07:27:21;;;;;;;12.53;7.30;;;;;;;;;;5094758;28;20255;-74
2022/01/07 07:29:47;;;;;;;10.93;6.53;;;;;;;;;;5094641;28;20422;-72
2022/01/07 07:32:16;;;;;;;11.90;6.88;;;;;;;;;;5094612;28;20411;-74
2022/01/07 07:34:58;;;;;;;15.02;7.15;;;;;;;;;;5094566;28;20195;-72
2022/01/07 07:37:24;;;;;;;13.57;7.37;;;;;;;;;;5093617;28;20279;-72
2022/01/07 07:39:50;;;;;;;10.35;6.50;;;;;;;;;;5094488;28;20406;-71
2022/01/07 07:42:16;;;;;;;11.83;6.37;;;;;;;;;;5093109;28;20219;-72
2022/01/07 07:44:42;;;;;;;9.40;6.13;;;;;;;;;;5094378;28;20816;-74
2022/01/07 07:47:08;;;;;;;12.60;6.50;;;;;;;;;;5093008;28;20419;-72
2022/01/07 07:49:34;;;;;;;11.80;5.93;;;;;;;;;;5093128;28;20410;-72
2022/01/07 07:52:00;;;;;;;10.93;6.83;;;;;;;;;;5094245;28;20409;-72
2022/01/07 07:54:26;;;;;;;15.67;7.40;;;;;;;;;;5094099;28;20403;-72
2022/01/07 07:56:52;;;;;;;10.93;7.20;;;;;;;;;;5092766;28;20996;-74
2022/01/07 07:59:27;;;;;;;11.05;6.20;;;;;;;;;;5119927;27;20537;-74
2022/01/07 08:01:53;;;;;;;13.53;6.23;;;;;;;;;;5111068;28;20222;-73
2022/01/07 08:04:20;;;;;;;10.23;5.60;;;;;;;;;;5110937;28;20895;-74
2022/01/07 08:06:46;;;;;;;10.90;6.57;;;;;;;;;;5110989;28;20401;-74
2022/01/07 08:09:13;;;;;;;9.30;5.90;;;;;;;;;;5110868;28;20490;-73
2022/01/07 08:11:49;;;;;;;11.00;7.30;;;;;;;;;;5092841;28;20428;-71
2022/01/07 08:17:05;;;;;;;10.30;5.90;;;;;;;;;;5111161;28;20887;-71
2022/01/07 08:19:31;;;;;;;10.73;6.00;;;;;;;;;;5110739;28;20408;-72
2022/01/07 08:21:57;;;;;;;9.47;6.30;;;;;;;;;;5110668;28;20929;-73
2022/01/07 08:24:23;;;;;;;10.77;6.23;;;;;;;;;;5110648;28;20456;-73
2022/01/07 08:26:50;;;;;;;10.17;6.17;;;;;;;;;;5110561;28;20404;-70
2022/01/07 08:29:16;;;;;;;12.17;7.13;;;;;;;;;;5110443;28;20435;-70
2022/01/07 08:36:53;;;;;;;10.43;5.97;;;;;;;;;;5110399;28;20485;-73
2022/01/07 08:39:19;;;;;;;10.63;6.10;;;;;;;;;;5110204;28;20688;-70
2022/01/07 08:41:45;;;;;;;8.60;6.20;;;;;;;;;;5110263;28;20404;-70
2022/01/07 08:44:12;;;;;;;11.50;6.00;;;;;;;;;;5110272;28;20408;-70
2022/01/07 08:46:38;;;;;;;11.60;6.47;;;;;;;;;;5110244;28;20515;-72
2022/01/07 08:49:06;;;;;;;8.40;6.00;;;;;;;;;;5110179;28;20218;-72
2022/01/07 08:51:32;;;;;;;9.57;5.67;;;;;;;;;;5110190;28;20400;-73
2022/01/07 08:53:58;;;;;;;8.43;5.90;;;;;;;;;;5110086;28;20409;-72
2022/01/07 08:56:25;;;;;;;10.10;6.00;;;;;;;;;;5110046;28;20411;-71
2022/01/07 08:58:55;;;;;;;8.37;6.00;;;;;;;;;;5103637;28;21051;-73
2022/01/07 09:01:23;;;;;;;10.20;6.23;;;;;;;;;;5110059;28;20404;-72
2022/01/07 09:03:49;;;;;;;10.70;7.00;;;;;;;;;;5109952;28;20404;-74
2022/01/07 09:06:15;;;;;;;10.57;6.00;;;;;;;;;;5109820;28;20469;-73
2022/01/07 09:08:41;;;;;;;9.77;5.10;;;;;;;;;;5108423;28;20408;-73
2022/01/07 09:11:07;;;;;;;8.10;5.40;;;;;;;;;;5095949;28;20397;-76
2022/01/07 09:13:33;;;;;;;9.40;5.10;;;;;;;;;;5094872;28;20409;-73
2022/01/07 09:15:59;;;;;;;13.17;6.37;;;;;;;;;;5096073;28;20895;-73
2022/01/07 09:18:26;;;;;;;11.23;6.10;;;;;;;;;;5096038;28;20782;-76
2022/01/07 09:20:54;;;;;;;9.40;5.70;;;;;;;;;;5096046;28;20389;-74
2022/01/07 09:23:20;;;;;;;11.70;6.47;;;;;;;;;;5095930;28;20770;-74
2022/01/07 09:25:45;;;;;;;11.60;6.73;;;;;;;;;;5094588;28;20404;-71
2022/01/07 09:28:12;;;;;;;11.73;5.90;;;;;;;;;;5095755;28;20405;-72
2022/01/07 09:30:39;;;;;;;12.67;6.27;;;;;;;;;;5094443;28;20409;-72
2022/01/07 09:33:05;;;;;;;8.40;5.30;;;;;;;;;;5095750;28;20920;-75
2022/01/07 09:35:31;;;;;;;10.70;6.00;;;;;;;;;;5095819;28;20949;-74
2022/01/07 09:37:57;;;;;;;7.63;5.07;;;;;;;;;;5095532;28;20850;-71
2022/01/07 09:40:23;;;;;;;8.07;5.70;;;;;;;;;;5095619;28;20575;-74
2022/01/07 09:43:03;;;;;;;11.20;6.40;;;;;;;;;;5095697;28;20409;-75
2022/01/07 09:45:30;;;;;;;9.00;5.30;;;;;;;;;;5094267;28;20407;-72
2022/01/07 09:47:57;;;;;;;10.30;6.07;;;;;;;;;;5095519;28;20533;-75
2022/01/07 09:50:24;;;;;;;10.90;5.70;;;;;;;;;;5095582;28;20482;-76
2022/01/07 09:52:50;;;;;;;9.13;6.03;;;;;;;;;;5095514;28;20413;-72
2022/01/07 09:55:16;;;;;;;12.23;6.60;;;;;;;;;;5095381;28;20412;-74
2022/01/07 09:57:42;;;;;;;9.93;5.87;;;;;;;;;;5093825;28;20469;-75
2022/01/07 10:00:09;;;;;;;7.27;4.93;;;;;;;;;;5093816;28;20437;-74
2022/01/07 10:02:35;;;;;;;8.13;5.70;;;;;;;;;;5095322;28;20401;-75
2022/01/07 10:05:17;;;;;;;9.50;5.32;;;;;;;;;;5095312;28;20405;-75
2022/01/07 10:07:44;;;;;;;9.20;5.07;;;;;;;;;;5095046;28;20198;-72
2022/01/07 10:10:14;;;;;;;9.63;5.27;;;;;;;;;;5093830;28;20405;-74
2022/01/07 10:12:56;;;;;;;9.57;5.60;;;;;;;;;;5095068;28;20431;-78
2022/01/07 10:15:26;;;;;;;7.80;5.20;;;;;;;;;;5095015;28;20884;-74
2022/01/07 10:17:56;;;;;;;9.57;5.50;;;;;;;;;;5094922;28;20460;-76
2022/01/07 10:20:23;;;;;;;7.40;5.90;;;;;;;;;;5094380;28;20888;-78
2022/01/07 10:22:54;;;;;;;10.23;6.13;;;;;;;;;;5094219;28;20455;-77
2022/01/07 10:25:24;;;;;;;10.30;5.30;;;;;;;;;;5094901;28;20408;-74
2022/01/07 10:27:50;;;;;;;9.03;5.20;;;;;;;;;;5094748;28;20389;-75
2022/01/07 10:30:18;;;;;;;12.30;5.83;;;;;;;;;;5094633;28;20521;-75
2022/01/07 10:32:45;;;;;;;9.30;5.70;;;;;;;;;;5094542;28;20427;-75
2022/01/07 10:35:12;;;;;;;8.90;5.70;;;;;;;;;;5094648;28;20533;-77
2022/01/07 10:37:47;;;;;;;9.73;6.20;;;;;;;;;;5094556;28;20443;-76
2022/01/07 10:40:27;;;;;;;9.47;5.93;;;;;;;;;;5093113;28;20456;-77
2022/01/07 10:42:55;;;;;;;11.97;5.87;;;;;;;;;;5094393;28;20878;-77
2022/01/07 10:45:21;;;;;;;10.10;5.37;;;;;;;;;;5094430;28;20453;-77
2022/01/07 10:47:52;;;;;;;7.57;5.60;;;;;;;;;;5093136;28;20423;-77
2022/01/07 10:50:20;;;;;;;7.13;5.03;;;;;;;;;;5093084;28;20857;-78
2022/01/07 10:52:46;;;;;;;9.73;5.80;;;;;;;;;;5094241;28;20389;-78
2022/01/07 10:55:18;;;;;;;8.17;5.40;;;;;;;;;;5094399;28;20402;-78
2022/01/07 10:57:46;;;;;;;9.57;5.80;;;;;;;;;;5087658;28;20962;-77
2022/01/07 11:00:13;;;;;;;7.90;5.93;;;;;;;;;;5055698;28;20428;-78
2022/01/07 11:02:42;;;;;;;9.70;5.87;;;;;;;;;;5073983;28;20399;-78
2022/01/07 11:05:09;;;;;;;10.13;6.13;;;;;;;;;;5055916;28;20505;-78
2022/01/07 11:07:35;;;;;;;11.33;6.20;;;;;;;;;;5073804;28;20401;-77
2022/01/07 11:10:02;;;;;;;15.00;6.63;;;;;;;;;;5073825;28;20407;-79
2022/01/07 11:12:30;;;;;;;11.63;5.90;;;;;;;;;;5055762;28;20408;-80
2022/01/07 11:14:56;;;;;;;10.10;6.20;;;;;;;;;;5055683;28;20513;-79
2022/01/07 11:17:22;;;;;;;9.13;6.30;;;;;;;;;;5055759;28;20441;-80
2022/01/07 11:19:52;;;;;;;11.07;6.60;;;;;;;;;;5073760;28;20414;-80
2022/01/07 11:22:19;;;;;;;8.90;5.87;;;;;;;;;;5055740;28;20414;-80
2022/01/07 11:24:48;;;;;;;11.53;6.03;;;;;;;;;;5055412;28;20414;-80
2022/01/07 11:27:17;;;;;;;10.03;6.30;;;;;;;;;;5073485;28;20402;-75
2022/01/07 11:29:51;;;;;;;10.30;6.40;;;;;;;;;;5055389;28;20429;-77
2022/01/07 11:32:26;;;;;;;10.67;5.80;;;;;;;;;;5073219;28;20717;-76
2022/01/07 11:34:53;;;;;;;10.90;6.17;;;;;;;;;;5073255;28;20876;-75
2022/01/07 11:37:39;;;;;;;8.07;5.50;;;;;;;;;;5055316;28;20543;-74
2022/01/07 11:40:05;;;;;;;8.90;6.33;;;;;;;;;;5073437;28;20405;-73
2022/01/07 11:42:41;;;;;;;11.40;5.63;;;;;;;;;;5073195;28;20429;-79
2022/01/07 11:45:28;;;;;;;9.57;6.30;;;;;;;;;;5073191;28;20406;-78
2022/01/07 11:47:55;;;;;;;13.60;6.27;;;;;;;;;;5073203;28;20406;-79
2022/01/07 11:50:23;;;;;;;7.93;6.10;;;;;;;;;;5055301;28;20420;-79
2022/01/07 11:53:15;;;;;;;8.13;5.80;;;;;;;;;;5072894;28;20447;-78
2022/01/07 11:55:42;;;;;;;10.97;6.70;;;;;;;;;;5069543;28;20441;-76
2022/01/07 11:58:09;;;;;;;11.33;5.87;;;;;;;;;;5070239;28;20468;-76
2022/01/07 12:00:54;;;;;;;11.23;6.10;;;;;;;;;;5091953;28;20423;-76
2022/01/07 12:03:40;;;;;;;12.23;6.43;;;;;;;;;;5093095;28;20396;-74
2022/01/07 12:06:24;;;;;;;9.20;6.27;;;;;;;;;;5093132;28;20417;-78
2022/01/07 12:08:59;;;;;;;8.57;5.73;;;;;;;;;;5093303;28;20882;-75
2022/01/07 12:11:36;;;;;;;9.37;5.80;;;;;;;;;;5093153;28;20397;-76
2022/01/07 12:14:07;;;;;;;9.63;6.17;;;;;;;;;;5093117;28;20409;-77
2022/01/07 12:16:34;;;;;;;8.10;5.40;;;;;;;;;;5091926;28;20764;-78
2022/01/07 12:19:06;;;;;;;9.27;5.87;;;;;;;;;;5091698;28;20830;-78
2022/01/07 12:21:32;;;;;;;8.53;5.57;;;;;;;;;;5093065;28;20405;-77
2022/01/07 12:24:05;;;;;;;9.00;5.30;;;;;;;;;;5091779;28;20762;-78
2022/01/07 12:26:32;;;;;;;9.47;5.67;;;;;;;;;;5091731;28;20415;-75
2022/01/07 12:28:58;;;;;;;8.10;5.27;;;;;;;;;;5091525;28;20437;-76
2022/01/07 12:31:24;;;;;;;10.17;6.50;;;;;;;;;;5092965;28;20416;-75
2022/01/07 12:33:55;;;;;;;7.00;5.27;;;;;;;;;;5091727;28;20519;-73
2022/01/07 12:36:31;;;;;;;12.77;6.57;;;;;;;;;;5093626;28;20960;-75
2022/01/07 12:38:58;;;;;;;8.07;5.73;;;;;;;;;;5091934;28;20846;-78
2022/01/07 12:41:24;;;;;;;8.77;6.70;;;;;;;;;;5092936;28;20499;-78
2022/01/07 12:44:03;;;;;;;8.70;4.73;;;;;;;;;;5092959;28;20979;-78
2022/01/07 12:46:29;;;;;;;7.60;4.60;;;;;;;;;;5096755;28;20488;-78
2022/01/07 12:48:55;;;;;;;8.90;5.23;;;;;;;;;;5095377;28;20523;-78
2022/01/07 12:51:22;;;;;;;5.90;4.67;;;;;;;;;;5095354;28;20460;-76
2022/01/07 12:53:58;;;;;;;8.30;5.63;;;;;;;;;;5095420;28;20429;-77
2022/01/07 12:56:26;;;;;;;7.10;4.80;;;;;;;;;;5096654;28;20409;-78
2022/01/07 12:58:52;;;;;;;9.00;4.77;;;;;;;;;;5080399;28;20496;-78
2022/01/07 13:01:22;;;;;;;6.50;4.53;;;;;;;;;;5076103;28;20418;-77
2022/01/07 13:03:59;;;;;;;6.53;4.90;;;;;;;;;;5076200;28;20504;-78
2022/01/07 13:06:25;;;;;;;8.90;5.00;;;;;;;;;;5076310;28;20409;-78
2022/01/07 13:08:52;;;;;;;5.83;4.50;;;;;;;;;;5076021;28;20410;-78
2022/01/07 13:11:19;;;;;;;7.47;4.33;;;;;;;;;;5057914;28;20413;-76
2022/01/07 13:13:45;;;;;;;9.00;4.97;;;;;;;;;;5075950;28;20444;-76
2022/01/07 13:16:11;;;;;;;7.90;5.17;;;;;;;;;;5075912;28;20479;-78
2022/01/07 13:18:43;;;;;;;6.83;4.33;;;;;;;;;;5075614;28;20464;-77
2022/01/07 13:21:14;;;;;;;7.70;4.50;;;;;;;;;;5075887;28;20450;-77
2022/01/07 13:23:53;;;;;;;5.77;5.07;;;;;;;;;;5075760;28;20750;-78
2022/01/07 13:26:20;;;;;;;6.07;4.67;;;;;;;;;;5075801;28;20565;-74
2022/01/07 13:28:47;;;;;;;8.27;5.27;;;;;;;;;;5075732;28;20433;-73
2022/01/07 13:31:14;;;;;;;10.53;4.50;;;;;;;;;;5076284;28;20471;-76
2022/01/07 13:33:41;;;;;;;6.37;4.47;;;;;;;;;;5057523;28;20934;-76
2022/01/07 13:36:10;;;;;;;4.77;3.93;;;;;;;;;;5075634;28;20402;-76
2022/01/07 13:38:37;;;;;;;6.63;4.57;;;;;;;;;;5057342;28;20530;-76
2022/01/07 13:41:08;;;;;;;5.37;4.37;;;;;;;;;;5075440;28;20798;-76
2022/01/07 13:43:35;;;;;;;5.13;4.00;;;;;;;;;;5075365;28;20421;-74
2022/01/07 13:46:28;;;;;;;7.53;4.63;;;;;;;;;;5057382;28;20442;-75
2022/01/07 13:49:13;;;;;;;5.53;3.57;;;;;;;;;;5071615;28;20925;-76
2022/01/07 13:51:39;;;;;;;7.10;3.73;;;;;;;;;;5057238;28;20909;-76
2022/01/07 13:54:15;;;;;;;8.80;4.30;;;;;;;;;;5075196;28;20406;-76
2022/01/07 13:56:46;;;;;;;6.00;4.30;;;;;;;;;;5074999;28;20816;-75
2022/01/07 13:59:12;;;;;;;6.40;3.87;;;;;;;;;;5074558;28;20939;-76
2022/01/07 14:01:59;;;;;;;5.87;3.63;;;;;;;;;;5075072;28;20913;-76
2022/01/07 14:04:43;;;;;;;6.50;3.50;;;;;;;;;;5074926;28;20451;-77
2022/01/07 14:07:23;;;;;;;4.40;3.10;;;;;;;;;;5074856;28;20485;-75
2022/01/07 14:10:00;;;;;;;3.47;2.87;;;;;;;;;;5074855;28;20405;-75
2022/01/07 14:12:26;;;;;;;8.03;3.43;;;;;;;;;;5074760;28;20485;-75
2022/01/07 14:15:02;;;;;;;4.03;3.40;;;;;;;;;;5074758;28;20406;-75
2022/01/07 14:17:28;;;;;;;5.33;3.23;;;;;;;;;;5074680;28;20876;-76
2022/01/07 14:19:55;;;;;;;6.40;3.20;;;;;;;;;;5074719;28;20405;-75
2022/01/07 14:22:21;;;;;;;3.70;3.00;;;;;;;;;;5074573;28;20953;-76
2022/01/07 14:24:47;;;;;;;4.20;3.20;;;;;;;;;;5074740;28;20429;-75
2022/01/07 14:27:23;;;;;;;5.10;3.27;;;;;;;;;;5074492;28;20747;-76
2022/01/07 14:29:49;;;;;;;5.70;4.20;;;;;;;;;;5074545;28;20417;-71
2022/01/07 14:32:15;;;;;;;3.97;3.33;;;;;;;;;;5074354;28;20418;-71
2022/01/07 14:34:41;;;;;;;4.83;3.70;;;;;;;;;;5074391;28;20763;-72
2022/01/07 14:37:07;;;;;;;5.00;3.03;;;;;;;;;;5074286;28;20494;-73
2022/01/07 14:39:33;;;;;;;4.73;2.90;;;;;;;;;;5074149;28;20469;-71
2022/01/07 14:41:59;;;;;;;3.70;2.93;;;;;;;;;;5074199;28;20888;-70
2022/01/07 14:44:26;;;;;;;3.10;2.80;;;;;;;;;;5074032;28;20418;-70
2022/01/07 14:46:52;;;;;;;5.53;3.30;;;;;;;;;;5074171;28;20410;-72